createdAt,value
2023-04-02T00:02:24.005Z,9.04
2023-04-02T00:05:34.865Z,9.07
2023-04-02T00:08:41.080Z,9.07
2023-04-02T00:11:49.270Z,9.10
2023-04-02T00:14:55.482Z,9.14
2023-04-02T00:18:00.360Z,9.16
2023-04-02T00:21:16.932Z,9.17
2023-04-02T00:24:22.627Z,9.21
2023-04-02T00:27:28.507Z,9.24
2023-04-02T00:30:32.175Z,9.25
2023-04-02T00:33:35.910Z,9.24
2023-04-02T00:36:38.823Z,9.25
2023-04-02T00:39:41.608Z,9.27
2023-04-02T00:42:46.529Z,9.28
2023-04-02T00:45:58.642Z,9.26
2023-04-02T00:49:09.939Z,9.29
2023-04-02T00:52:18.486Z,9.29
2023-04-02T00:55:33.240Z,9.28
2023-04-02T00:58:37.924Z,9.31
2023-04-02T01:01:42.745Z,9.30
2023-04-02T01:04:58.906Z,9.31
2023-04-02T01:08:34.639Z,9.31
2023-04-02T01:12:03.249Z,9.30
2023-04-02T01:15:13.359Z,9.26
2023-04-02T01:18:21.057Z,9.26
2023-04-02T01:21:25.440Z,9.25
2023-04-02T01:24:33.284Z,9.26
2023-04-02T01:27:57.364Z,9.27
2023-04-02T01:31:01.955Z,9.28
2023-04-02T01:34:08.579Z,9.30
2023-04-02T01:37:22.876Z,9.20
2023-04-02T01:40:40.168Z,9.29
2023-04-02T01:43:58.577Z,9.33
2023-04-02T01:47:07.063Z,9.34
2023-04-02T01:50:31.933Z,9.35
2023-04-02T01:53:42.012Z,9.35
2023-04-02T01:56:47.613Z,9.35
2023-04-02T01:59:51.161Z,9.33
2023-04-02T02:02:54.231Z,9.34
2023-04-02T02:05:59.610Z,9.32
2023-04-02T02:09:06.576Z,9.32
2023-04-02T02:12:15.523Z,9.31
2023-04-02T02:15:22.233Z,9.28
2023-04-02T02:18:27.738Z,9.25
2023-04-02T02:21:44.508Z,9.23
2023-04-02T02:24:48.251Z,9.23
2023-04-02T02:28:21.739Z,9.21
2023-04-02T02:31:29.703Z,9.18
2023-04-02T02:34:43.527Z,9.17
2023-04-02T02:37:52.981Z,9.16
2023-04-02T02:41:04.573Z,9.15
2023-04-02T02:44:11.280Z,9.15
2023-04-02T02:47:33.755Z,9.14
2023-04-02T02:50:41.211Z,9.13
2023-04-02T02:53:49.948Z,9.10
2023-04-02T02:57:03.989Z,9.08
2023-04-02T03:00:09.932Z,9.06
2023-04-02T03:03:19.419Z,9.04
2023-04-02T03:06:24.566Z,9.05
2023-04-02T03:09:58.656Z,9.04
2023-04-02T03:13:29.623Z,9.02
2023-04-02T03:16:42.461Z,9.01
2023-04-02T03:19:52.169Z,8.98
2023-04-02T03:23:02.550Z,8.95
2023-04-02T03:26:12.822Z,8.92
2023-04-02T03:29:31.349Z,8.92
2023-04-02T03:32:39.253Z,8.90
2023-04-02T03:36:10.799Z,8.90
2023-04-02T03:39:21.035Z,8.87
2023-04-02T03:42:28.751Z,8.88
2023-04-02T03:45:41.102Z,8.87
2023-04-02T03:48:49.861Z,8.89
2023-04-02T03:52:02.755Z,8.85
2023-04-02T03:55:17.775Z,8.84
2023-04-02T03:58:27.112Z,8.82
2023-04-02T04:01:41.794Z,8.81
2023-04-02T04:04:48.537Z,8.77
2023-04-02T04:08:07.956Z,8.69
2023-04-02T04:11:20.011Z,8.67
2023-04-02T04:14:35.194Z,8.54
2023-04-02T04:17:54.447Z,8.53
2023-04-02T04:21:02.250Z,8.42
2023-04-02T04:24:20.402Z,8.39
2023-04-02T04:27:24.010Z,8.35
2023-04-02T04:30:35.006Z,8.32
2023-04-02T04:33:44.025Z,8.22
2023-04-02T04:36:54.912Z,8.19
2023-04-02T04:40:10.499Z,8.25
2023-04-02T04:43:30.261Z,8.31
2023-04-02T04:46:47.952Z,8.38
2023-04-02T04:50:06.548Z,8.46
2023-04-02T04:53:29.538Z,8.52
2023-04-02T04:56:37.708Z,8.56
2023-04-02T05:00:08.142Z,8.69
2023-04-02T05:03:33.053Z,8.90
2023-04-02T05:06:45.903Z,9.12
2023-04-02T05:09:59.112Z,9.36
2023-04-02T05:13:33.392Z,9.56
2023-04-02T05:16:43.712Z,9.74
2023-04-02T05:20:03.603Z,10.01
2023-04-02T05:23:23.677Z,10.23
2023-04-02T05:26:39.977Z,10.47
2023-04-02T05:29:51.025Z,10.70
2023-04-02T05:33:13.516Z,10.96
2023-04-02T05:36:32.576Z,11.25
2023-04-02T05:39:37.514Z,11.46
2023-04-02T05:42:46.477Z,11.72
2023-04-02T05:45:59.752Z,11.99
2023-04-02T05:49:18.421Z,12.16
2023-04-02T05:52:34.530Z,12.48
2023-04-02T05:56:27.419Z,12.59
2023-04-02T15:53:03.427Z,13.63
2023-04-02T15:56:47.017Z,13.72
2023-04-02T16:00:33.669Z,13.43
2023-04-02T16:04:05.600Z,12.58
2023-04-02T16:07:20.924Z,11.66
2023-04-02T16:10:42.928Z,11.91
2023-04-02T16:13:47.597Z,11.37
2023-04-02T16:17:21.717Z,11.26
2023-04-02T16:20:41.799Z,11.38
2023-04-02T16:23:49.593Z,11.60
2023-04-02T16:27:24.899Z,11.63
2023-04-02T16:31:04.684Z,11.50
2023-04-02T16:34:24.690Z,11.63
2023-04-02T16:38:10.032Z,11.63
2023-04-02T16:41:42.634Z,11.73
2023-04-02T16:45:18.035Z,11.80
2023-04-02T16:48:43.667Z,11.91
2023-04-02T16:52:06.541Z,12.09
2023-04-02T16:55:23.635Z,12.18
2023-04-02T16:58:37.645Z,12.14
2023-04-02T17:02:25.516Z,12.08
2023-04-02T17:06:00.605Z,11.94
2023-04-02T17:09:16.560Z,11.95
2023-04-02T17:12:28.356Z,11.94
2023-04-02T17:15:45.567Z,11.79
2023-04-02T17:18:58.438Z,11.72
2023-04-02T17:22:14.449Z,11.57
2023-04-02T17:25:32.766Z,11.60
2023-04-02T17:28:49.617Z,11.47
2023-04-02T17:32:01.925Z,11.41
2023-04-02T17:35:26.863Z,11.36
2023-04-02T17:39:00.399Z,11.29
2023-04-02T17:42:38.741Z,11.18
2023-04-02T17:46:04.617Z,11.12
2023-04-02T17:49:36.947Z,11.06
2023-04-02T17:53:02.710Z,10.93
2023-04-02T17:56:23.821Z,10.87
2023-04-02T17:59:56.532Z,10.79
2023-04-02T18:03:49.599Z,10.66
2023-04-02T18:07:23.586Z,10.55
2023-04-02T18:11:02.791Z,10.40
2023-04-02T18:14:34.586Z,10.30
2023-04-02T18:18:16.697Z,10.18
2023-04-02T18:21:34.525Z,10.08
2023-04-02T18:25:09.121Z,10.04
2023-04-02T18:28:34.542Z,9.97
2023-04-02T18:31:58.426Z,9.83
2023-04-02T18:35:24.726Z,9.77
2023-04-02T18:39:03.504Z,9.70
2023-04-02T18:42:26.796Z,9.63
2023-04-02T18:45:43.736Z,9.49
2023-04-02T18:49:22.545Z,9.39
2023-04-02T18:52:35.696Z,9.30
2023-04-02T18:56:05.834Z,9.25
2023-04-02T18:59:24.647Z,9.20
2023-04-02T19:02:57.498Z,9.10
2023-04-02T19:06:30.619Z,9.09
2023-04-02T19:09:44.857Z,9.03
2023-04-02T19:12:50.000Z,8.94
2023-04-02T19:16:16.554Z,8.89
2023-04-02T19:19:53.841Z,8.86
2023-04-02T19:23:34.675Z,8.78
2023-04-02T19:26:54.549Z,8.75
2023-04-02T19:30:42.625Z,8.73
2023-04-02T19:34:08.829Z,8.61
2023-04-02T19:37:35.425Z,8.47
2023-04-02T19:41:25.841Z,8.41
2023-04-02T19:44:36.847Z,8.36
2023-04-02T19:47:42.494Z,8.28
2023-04-02T19:51:00.891Z,8.21
2023-04-02T19:54:24.906Z,8.10
2023-04-02T19:57:38.571Z,8.06
2023-04-02T20:00:55.548Z,8.08
2023-04-02T20:04:05.910Z,8.02
2023-04-02T20:07:08.732Z,7.90
2023-04-02T20:10:13.753Z,8.00
2023-04-02T20:13:16.783Z,8.01
2023-04-02T20:16:23.521Z,7.99
2023-04-02T20:19:29.620Z,7.94
2023-04-02T20:22:43.883Z,7.97
2023-04-02T20:25:58.467Z,8.01
2023-04-02T20:29:09.548Z,7.93
2023-04-02T20:32:13.501Z,7.93
2023-04-02T20:35:29.896Z,7.96
2023-04-02T20:38:41.765Z,7.97
2023-04-02T20:41:49.543Z,7.94
2023-04-02T20:44:52.505Z,7.90
2023-04-02T20:47:56.874Z,7.92
2023-04-02T20:51:09.465Z,7.84
2023-04-02T20:54:30.085Z,7.86
2023-04-02T20:57:43.036Z,7.85
2023-04-02T21:00:53.690Z,7.80
2023-04-02T21:04:02.323Z,7.84
2023-04-02T21:07:16.520Z,7.84
2023-04-02T21:10:26.886Z,7.82
2023-04-02T21:13:38.484Z,7.82
2023-04-02T21:16:42.995Z,7.85
2023-04-02T21:19:52.386Z,7.84
2023-04-02T21:23:07.401Z,7.75
2023-04-02T21:26:16.855Z,7.84
2023-04-02T21:29:19.553Z,7.86
2023-04-02T21:32:24.052Z,7.85
2023-04-02T21:35:34.005Z,7.83
2023-04-02T21:38:47.610Z,7.87
2023-04-02T21:41:56.995Z,7.91
2023-04-02T21:45:00.150Z,7.85
2023-04-02T21:48:04.588Z,7.93
2023-04-02T21:51:21.780Z,7.99
2023-04-02T21:54:31.395Z,8.01
2023-04-02T21:57:34.734Z,7.97
2023-04-02T22:00:38.701Z,7.99
2023-04-02T22:03:43.552Z,8.01
2023-04-02T22:06:47.032Z,7.98
2023-04-02T22:09:52.285Z,7.93
2023-04-02T22:12:56.512Z,7.88
2023-04-02T22:16:03.661Z,7.90
2023-04-02T22:19:13.253Z,7.89
2023-04-02T22:22:16.633Z,7.89
2023-04-02T22:25:19.818Z,7.87
2023-04-02T22:28:23.603Z,7.87
2023-04-02T22:31:29.708Z,7.86
2023-04-02T22:34:34.547Z,7.77
2023-04-02T22:37:38.561Z,7.68
2023-04-02T22:40:42.786Z,7.57
2023-04-02T22:43:46.102Z,7.50
2023-04-02T22:46:49.359Z,7.50
2023-04-02T22:49:53.028Z,7.43
2023-04-02T22:52:56.883Z,7.44
2023-04-02T22:56:06.835Z,7.40
2023-04-02T22:59:11.562Z,7.36
2023-04-02T23:02:14.224Z,7.38
2023-04-02T23:05:17.600Z,7.31
2023-04-02T23:08:21.787Z,7.30
2023-04-02T23:11:28.454Z,7.26
2023-04-02T23:14:31.357Z,7.24
2023-04-02T23:17:36.142Z,7.21
2023-04-02T23:20:40.744Z,7.12
2023-04-02T23:23:51.589Z,7.05
2023-04-02T23:26:54.624Z,7.00
2023-04-02T23:29:57.629Z,6.97
2023-04-02T23:33:03.506Z,6.94
2023-04-02T23:36:10.304Z,6.88
2023-04-02T23:39:13.979Z,6.86
2023-04-02T23:42:18.756Z,6.86
2023-04-02T23:45:22.034Z,6.85
2023-04-02T23:48:25.445Z,6.80
2023-04-02T23:51:32.296Z,6.73
2023-04-02T23:54:35.719Z,6.71
2023-04-02T23:57:38.730Z,6.66
